Time;durP1;ratioP1;P1;durP2;ratioP2;P2;SDS_P1;SDS_P2;PMS_P1;PMS_P2;Temp;Humidity;BMP_temperature;BMP_pressure;BME280_temperature;BME280_humidity;BME280_pressure;Samples;Min_cycle;Max_cycle;Signal;HPM_P1;HPM_P2
2021/10/08 00:01:20;;;;;;;;;;;18.80;65.50;;;;;;5077105;28;19973;-57
2021/10/08 00:03:47;;;;;;;;;;;18.80;65.60;;;;;;5065190;28;19928;-58
2021/10/08 00:06:13;;;;;;;;;;;18.80;65.60;;;;;;5067659;28;19935;-57
2021/10/08 00:08:39;;;;;;;;;;;18.80;65.60;;;;;;5071479;28;19920;-57
2021/10/08 00:11:04;;;;;;;;;;;18.80;65.60;;;;;;5066052;28;20456;-56
2021/10/08 00:13:30;;;;;;;;;;;18.80;65.50;;;;;;5065256;28;19916;-57
2021/10/08 00:15:55;;;;;;;;;;;18.80;65.60;;;;;;5063828;28;20706;-58
2021/10/08 00:18:21;;;;;;;;;;;18.80;65.50;;;;;;5069721;28;19932;-57
2021/10/08 00:20:46;;;;;;;;;;;18.80;65.50;;;;;;5072446;28;19917;-55
2021/10/08 00:23:12;;;;;;;;;;;18.80;65.60;;;;;;5075017;28;19920;-56
2021/10/08 00:25:39;;;;;;;;;;;18.80;65.60;;;;;;5057551;28;20388;-57
2021/10/08 00:28:05;;;;;;;;;;;18.80;65.60;;;;;;5069635;28;19916;-54
2021/10/08 00:30:31;;;;;;;;;;;18.80;65.60;;;;;;5047481;28;20832;-53
2021/10/08 00:32:56;;;;;;;;;;;18.80;65.60;;;;;;5074941;28;20026;-53
2021/10/08 00:35:22;;;;;;;;;;;18.80;65.60;;;;;;5077118;28;20621;-56
2021/10/08 00:37:50;;;;;;;;;;;18.80;65.50;;;;;;5064983;28;19920;-55
2021/10/08 00:40:15;;;;;;;;;;;18.80;65.50;;;;;;5066661;28;20512;-58
2021/10/08 00:42:40;;;;;;;;;;;18.80;65.50;;;;;;5069936;28;19928;-58
2021/10/08 00:45:06;;;;;;;;;;;18.80;65.70;;;;;;5046962;28;19947;-58
2021/10/08 00:47:32;;;;;;;;;;;18.80;65.60;;;;;;5069095;28;19995;-58
2021/10/08 00:49:58;;;;;;;;;;;18.80;65.70;;;;;;5074984;28;22471;-57
2021/10/08 00:52:25;;;;;;;;;;;18.80;65.70;;;;;;5067680;28;20439;-57
2021/10/08 00:54:50;;;;;;;;;;;18.80;65.60;;;;;;5037422;28;19973;-57
2021/10/08 00:57:16;;;;;;;;;;;18.80;65.60;;;;;;5064293;28;19920;-57
2021/10/08 00:59:42;;;;;;;;;;;18.80;65.60;;;;;;5051080;28;20006;-55
2021/10/08 01:02:07;;;;;;;;;;;18.80;65.60;;;;;;5055328;28;20159;-57
2021/10/08 01:04:33;;;;;;;;;;;18.80;65.50;;;;;;5033235;28;19916;-57
2021/10/08 01:06:59;;;;;;;;;;;18.80;65.60;;;;;;5046987;28;20416;-56
2021/10/08 01:09:24;;;;;;;;;;;18.80;65.60;;;;;;5070078;28;19917;-58
2021/10/08 01:11:50;;;;;;;;;;;18.80;65.50;;;;;;5064534;28;19995;-58
2021/10/08 01:14:15;;;;;;;;;;;18.80;65.60;;;;;;5051844;28;20300;-58
2021/10/08 01:16:41;;;;;;;;;;;18.80;65.50;;;;;;5072995;28;19917;-55
2021/10/08 01:19:06;;;;;;;;;;;18.70;65.60;;;;;;5069746;28;19925;-54
2021/10/08 01:21:32;;;;;;;;;;;18.80;65.60;;;;;;5067960;28;19927;-58
2021/10/08 01:23:57;;;;;;;;;;;18.80;65.60;;;;;;5075546;28;20358;-57
2021/10/08 01:26:23;;;;;;;;;;;18.80;65.60;;;;;;5073751;28;19924;-56
2021/10/08 01:28:48;;;;;;;;;;;18.80;65.60;;;;;;5073378;28;19920;-55
2021/10/08 01:31:14;;;;;;;;;;;18.80;65.60;;;;;;5064183;28;20554;-56
2021/10/08 01:33:39;;;;;;;;;;;18.80;65.60;;;;;;5066070;28;19928;-57
2021/10/08 01:36:04;;;;;;;;;;;18.80;65.60;;;;;;5065886;28;19925;-58
2021/10/08 01:38:30;;;;;;;;;;;18.80;65.60;;;;;;5063327;28;19938;-56
2021/10/08 01:40:55;;;;;;;;;;;18.80;65.60;;;;;;5066384;28;20396;-57
2021/10/08 01:43:21;;;;;;;;;;;18.80;65.60;;;;;;5063267;28;19917;-57
2021/10/08 01:45:46;;;;;;;;;;;18.80;65.60;;;;;;5071291;28;19920;-55
2021/10/08 01:48:12;;;;;;;;;;;18.80;65.60;;;;;;5074402;28;19916;-58
2021/10/08 01:50:37;;;;;;;;;;;18.80;65.60;;;;;;5069038;28;20782;-57
2021/10/08 01:53:03;;;;;;;;;;;18.80;65.60;;;;;;5070855;28;20007;-58
2021/10/08 01:55:28;;;;;;;;;;;18.80;65.70;;;;;;5065919;28;19920;-55
2021/10/08 01:57:54;;;;;;;;;;;18.80;65.70;;;;;;5072044;28;19916;-57
2021/10/08 02:00:19;;;;;;;;;;;18.80;65.60;;;;;;5069313;28;19920;-54
2021/10/08 02:02:45;;;;;;;;;;;18.80;65.60;;;;;;5052075;28;19932;-54
2021/10/08 02:05:10;;;;;;;;;;;18.80;65.60;;;;;;5064587;28;20588;-56
2021/10/08 02:07:36;;;;;;;;;;;18.80;65.70;;;;;;5075548;28;19920;-57
2021/10/08 02:10:01;;;;;;;;;;;18.80;65.70;;;;;;5061653;28;19917;-56
2021/10/08 02:12:27;;;;;;;;;;;18.80;65.60;;;;;;5070308;28;20018;-55
2021/10/08 02:14:52;;;;;;;;;;;18.80;65.60;;;;;;5064593;28;19917;-56
2021/10/08 02:17:18;;;;;;;;;;;18.80;65.60;;;;;;5067463;28;19920;-55
2021/10/08 02:19:43;;;;;;;;;;;18.80;65.60;;;;;;5063564;28;19923;-57
2021/10/08 02:22:09;;;;;;;;;;;18.80;65.60;;;;;;5069505;28;19920;-58
2021/10/08 02:24:34;;;;;;;;;;;18.80;65.60;;;;;;5065186;28;20517;-54
2021/10/08 02:27:00;;;;;;;;;;;18.80;65.60;;;;;;5067745;28;19920;-57
2021/10/08 02:29:25;;;;;;;;;;;18.80;65.50;;;;;;5061230;28;19923;-55
2021/10/08 02:31:51;;;;;;;;;;;18.80;65.60;;;;;;5063800;28;20552;-58
2021/10/08 02:34:16;;;;;;;;;;;18.80;65.60;;;;;;5062167;28;19921;-57
2021/10/08 02:36:42;;;;;;;;;;;18.80;65.70;;;;;;5068255;28;19922;-57
2021/10/08 02:39:07;;;;;;;;;;;18.80;65.60;;;;;;5059211;28;19985;-56
2021/10/08 02:41:33;;;;;;;;;;;18.80;65.60;;;;;;5068186;28;21368;-58
2021/10/08 02:43:58;;;;;;;;;;;18.80;65.60;;;;;;5064297;28;19950;-57
2021/10/08 02:46:23;;;;;;;;;;;18.80;65.60;;;;;;5058508;28;19920;-56
2021/10/08 02:48:49;;;;;;;;;;;18.80;65.70;;;;;;5067781;28;19925;-56
2021/10/08 02:51:14;;;;;;;;;;;18.80;65.70;;;;;;5059902;28;19924;-57
2021/10/08 02:53:40;;;;;;;;;;;18.80;65.70;;;;;;5077171;28;19926;-56
2021/10/08 02:56:05;;;;;;;;;;;18.80;65.70;;;;;;5061053;28;19916;-57
2021/10/08 02:58:31;;;;;;;;;;;18.80;65.70;;;;;;5070426;28;19912;-56
2021/10/08 03:00:56;;;;;;;;;;;18.80;65.70;;;;;;5067004;28;20332;-56
2021/10/08 03:03:22;;;;;;;;;;;18.80;65.70;;;;;;5064870;28;19916;-58
2021/10/08 03:05:47;;;;;;;;;;;18.80;65.70;;;;;;5070150;28;20419;-56
2021/10/08 03:08:13;;;;;;;;;;;18.80;65.70;;;;;;5068061;28;19923;-58
2021/10/08 03:10:38;;;;;;;;;;;18.80;65.70;;;;;;5060442;28;19924;-56
2021/10/08 03:13:04;;;;;;;;;;;18.80;65.70;;;;;;5062818;28;19921;-54
2021/10/08 03:15:29;;;;;;;;;;;18.80;65.70;;;;;;5061892;28;19927;-57
2021/10/08 03:17:54;;;;;;;;;;;18.80;65.70;;;;;;5066815;28;20015;-55
2021/10/08 03:20:20;;;;;;;;;;;18.80;65.70;;;;;;5059517;28;20617;-58
2021/10/08 03:22:45;;;;;;;;;;;18.80;65.70;;;;;;5066758;28;19921;-57
2021/10/08 03:25:11;;;;;;;;;;;18.80;65.70;;;;;;5045770;28;19922;-57
2021/10/08 03:27:37;;;;;;;;;;;18.80;65.70;;;;;;5064614;28;19916;-57
2021/10/08 03:30:05;;;;;;;;;;;18.80;65.70;;;;;;5057856;28;19916;-58
2021/10/08 03:32:31;;;;;;;;;;;18.80;65.70;;;;;;5068227;28;19920;-58
2021/10/08 03:34:56;;;;;;;;;;;18.70;65.60;;;;;;5057876;28;19974;-56
2021/10/08 03:37:26;;;;;;;;;;;18.80;65.70;;;;;;5043089;28;19923;-57
2021/10/08 03:39:52;;;;;;;;;;;18.80;65.70;;;;;;5040231;28;20389;-57
2021/10/08 03:42:18;;;;;;;;;;;18.70;65.60;;;;;;5065588;28;19920;-55
2021/10/08 03:44:52;;;;;;;;;;;18.80;65.70;;;;;;5061152;28;19939;-56
2021/10/08 03:47:26;;;;;;;;;;;18.80;65.60;;;;;;5061932;28;19927;-56
2021/10/08 03:49:52;;;;;;;;;;;18.80;65.70;;;;;;5062457;28;19939;-58
2021/10/08 03:52:17;;;;;;;;;;;18.70;65.60;;;;;;5072955;28;20429;-57
2021/10/08 03:54:43;;;;;;;;;;;18.70;65.60;;;;;;5063277;28;20819;-55
2021/10/08 03:57:08;;;;;;;;;;;18.70;65.60;;;;;;5063620;28;20417;-58
2021/10/08 03:59:33;;;;;;;;;;;18.80;65.70;;;;;;5058883;28;19986;-58
2021/10/08 04:01:59;;;;;;;;;;;18.80;65.60;;;;;;5065693;28;20210;-55
2021/10/08 04:04:24;;;;;;;;;;;18.80;65.70;;;;;;5063288;28;19917;-56
2021/10/08 04:06:50;;;;;;;;;;;18.80;65.70;;;;;;5066569;28;19927;-56
2021/10/08 04:09:15;;;;;;;;;;;18.80;65.60;;;;;;5057771;28;19921;-56
2021/10/08 04:11:41;;;;;;;;;;;18.80;65.60;;;;;;5068117;28;19924;-57
2021/10/08 04:14:06;;;;;;;;;;;18.80;65.60;;;;;;5054237;28;19998;-57
2021/10/08 04:16:33;;;;;;;;;;;18.80;65.70;;;;;;5063808;28;19925;-56
2021/10/08 04:18:59;;;;;;;;;;;18.80;65.60;;;;;;5071750;28;19923;-58
2021/10/08 04:21:24;;;;;;;;;;;18.80;66.20;;;;;;5062311;28;20153;-58
2021/10/08 04:23:50;;;;;;;;;;;18.80;65.70;;;;;;5071165;28;20381;-57
2021/10/08 04:26:15;;;;;;;;;;;18.80;65.60;;;;;;5076027;28;19966;-56
2021/10/08 04:28:41;;;;;;;;;;;18.70;65.60;;;;;;5035975;28;19931;-56
2021/10/08 04:31:06;;;;;;;;;;;18.80;65.70;;;;;;5071655;28;20014;-57
2021/10/08 04:33:32;;;;;;;;;;;18.80;65.70;;;;;;5066237;28;20418;-57
2021/10/08 04:36:01;;;;;;;;;;;18.80;65.70;;;;;;5065219;28;20007;-57
2021/10/08 04:38:27;;;;;;;;;;;18.80;65.70;;;;;;5069382;28;20003;-58
2021/10/08 04:40:52;;;;;;;;;;;18.80;66.00;;;;;;5065128;28;20388;-56
2021/10/08 04:43:17;;;;;;;;;;;18.80;66.20;;;;;;5063691;28;19923;-58
2021/10/08 04:45:43;;;;;;;;;;;18.80;66.30;;;;;;5065778;28;19917;-54
2021/10/08 04:48:08;;;;;;;;;;;18.70;66.30;;;;;;5075101;28;19916;-57
2021/10/08 04:50:34;;;;;;;;;;;18.70;66.20;;;;;;5064655;28;19920;-58
2021/10/08 04:52:59;;;;;;;;;;;18.70;66.30;;;;;;5054905;28;19971;-54
2021/10/08 04:55:25;;;;;;;;;;;18.70;66.20;;;;;;5049399;28;19924;-56
2021/10/08 04:57:50;;;;;;;;;;;18.70;66.20;;;;;;5066215;28;20378;-56
2021/10/08 05:00:16;;;;;;;;;;;18.70;66.20;;;;;;5065744;28;19989;-52
2021/10/08 05:02:41;;;;;;;;;;;18.70;66.20;;;;;;5073977;28;19920;-53
2021/10/08 05:05:07;;;;;;;;;;;18.70;66.00;;;;;;5069464;28;19932;-62
2021/10/08 05:07:32;;;;;;;;;;;18.70;66.10;;;;;;5069061;28;19948;-56
2021/10/08 05:09:58;;;;;;;;;;;18.70;66.00;;;;;;5069436;28;19916;-55
2021/10/08 05:12:25;;;;;;;;;;;18.70;66.00;;;;;;5073080;28;19916;-57
2021/10/08 05:14:51;;;;;;;;;;;18.70;66.00;;;;;;5062410;28;19929;-57
2021/10/08 05:17:17;;;;;;;;;;;18.70;66.30;;;;;;5064857;28;19923;-58
2021/10/08 05:19:42;;;;;;;;;;;18.70;67.20;;;;;;5081737;28;19916;-53
2021/10/08 05:22:07;;;;;;;;;;;18.70;67.60;;;;;;5076760;28;19927;-56
2021/10/08 05:24:33;;;;;;;;;;;18.70;67.50;;;;;;5077245;28;19923;-56
2021/10/08 05:26:58;;;;;;;;;;;18.70;67.40;;;;;;5067652;28;20293;-57
2021/10/08 05:29:24;;;;;;;;;;;18.70;67.70;;;;;;5069269;28;19916;-57
2021/10/08 05:31:49;;;;;;;;;;;18.70;67.70;;;;;;5079654;28;19931;-56
2021/10/08 05:34:15;;;;;;;;;;;18.80;67.50;;;;;;5070788;28;19912;-53
2021/10/08 05:36:40;;;;;;;;;;;18.80;67.30;;;;;;5075120;28;20630;-56
2021/10/08 05:39:06;;;;;;;;;;;18.70;67.20;;;;;;5071390;28;19946;-55
2021/10/08 05:41:31;;;;;;;;;;;18.80;67.00;;;;;;5078716;28;19917;-56
2021/10/08 05:43:57;;;;;;;;;;;18.70;66.90;;;;;;5068324;28;20632;-57
2021/10/08 05:46:22;;;;;;;;;;;18.70;66.70;;;;;;5072391;28;19919;-56
2021/10/08 05:48:48;;;;;;;;;;;18.80;66.70;;;;;;5075327;28;19934;-58
2021/10/08 05:51:13;;;;;;;;;;;18.80;66.70;;;;;;5075487;28;20393;-57
2021/10/08 05:53:39;;;;;;;;;;;18.80;66.60;;;;;;5059630;23;19964;-60
2021/10/08 05:56:04;;;;;;;;;;;18.80;66.60;;;;;;5063241;28;19921;-56
2021/10/08 05:58:29;;;;;;;;;;;18.80;66.50;;;;;;5063028;28;19913;-58
2021/10/08 06:00:55;;;;;;;;;;;18.80;66.50;;;;;;5063697;28;20312;-59
2021/10/08 06:03:20;;;;;;;;;;;18.70;66.40;;;;;;5064040;28;19920;-59
2021/10/08 06:05:46;;;;;;;;;;;18.80;66.40;;;;;;5063558;28;19962;-57
2021/10/08 06:08:12;;;;;;;;;;;18.80;66.20;;;;;;5063395;28;19913;-56
2021/10/08 06:10:37;;;;;;;;;;;18.80;66.20;;;;;;5063350;28;20293;-62
2021/10/08 06:13:03;;;;;;;;;;;18.80;66.20;;;;;;5063843;28;19912;-58
2021/10/08 06:15:28;;;;;;;;;;;18.80;66.20;;;;;;5063292;28;20004;-59
2021/10/08 06:17:54;;;;;;;;;;;18.80;66.20;;;;;;5063008;28;19913;-59
2021/10/08 06:20:19;;;;;;;;;;;18.80;66.10;;;;;;5062650;28;20693;-55
2021/10/08 06:22:45;;;;;;;;;;;18.80;66.00;;;;;;5063165;28;19916;-59
2021/10/08 06:25:11;;;;;;;;;;;18.80;65.80;;;;;;5063216;28;19991;-57
2021/10/08 06:27:38;;;;;;;;;;;18.80;65.70;;;;;;5061808;28;22785;-59
2021/10/08 06:30:04;;;;;;;;;;;18.80;65.60;;;;;;5063165;28;19912;-59
2021/10/08 06:32:30;;;;;;;;;;;18.80;65.40;;;;;;5063208;28;20382;-57
2021/10/08 06:34:55;;;;;;;;;;;18.80;65.30;;;;;;5059398;28;19912;-59
2021/10/08 06:37:20;;;;;;;;;;;18.80;65.20;;;;;;5063229;28;19916;-59
2021/10/08 06:39:46;;;;;;;;;;;18.80;65.10;;;;;;5062366;28;19912;-59
2021/10/08 06:42:11;;;;;;;;;;;18.80;65.20;;;;;;5062841;28;20301;-59
2021/10/08 06:44:37;;;;;;;;;;;18.80;65.10;;;;;;5063759;28;19966;-59
2021/10/08 06:47:02;;;;;;;;;;;18.80;65.10;;;;;;5062203;28;19913;-57
2021/10/08 06:49:28;;;;;;;;;;;18.80;65.10;;;;;;5071458;22;19927;-52
2021/10/08 06:51:53;;;;;;;;;;;18.80;65.10;;;;;;5043473;28;19916;-55
2021/10/08 06:54:19;;;;;;;;;;;18.80;65.10;;;;;;5058081;28;19970;-51
2021/10/08 06:56:44;;;;;;;;;;;18.80;65.10;;;;;;5053980;28;19916;-52
2021/10/08 06:59:09;;;;;;;;;;;18.80;65.00;;;;;;5049926;28;19964;-55
2021/10/08 07:01:35;;;;;;;;;;;18.80;65.00;;;;;;5031078;28;19924;-53
2021/10/08 07:04:00;;;;;;;;;;;18.80;64.90;;;;;;5032326;28;19924;-50
2021/10/08 07:06:26;;;;;;;;;;;18.80;64.80;;;;;;5036546;28;19925;-53
2021/10/08 07:08:51;;;;;;;;;;;18.80;64.80;;;;;;5034022;28;20004;-55
2021/10/08 07:11:17;;;;;;;;;;;18.80;64.70;;;;;;5031342;28;19919;-57
2021/10/08 07:13:42;;;;;;;;;;;18.80;64.70;;;;;;5021420;28;19913;-58
2021/10/08 07:16:08;;;;;;;;;;;18.80;65.30;;;;;;5026590;28;19917;-59
2021/10/08 07:18:38;;;;;;;;;;;18.80;64.60;;;;;;5029677;28;19923;-52
2021/10/08 07:21:04;;;;;;;;;;;18.80;64.60;;;;;;5033954;28;20657;-54
2021/10/08 07:23:29;;;;;;;;;;;18.80;64.50;;;;;;5030027;28;19913;-52
2021/10/08 07:25:55;;;;;;;;;;;18.80;64.40;;;;;;5049289;28;19934;-54
2021/10/08 07:28:20;;;;;;;;;;;18.80;64.40;;;;;;5024925;28;20345;-52
2021/10/08 07:30:46;;;;;;;;;;;18.80;64.30;;;;;;5024995;28;19919;-51
2021/10/08 07:33:11;;;;;;;;;;;18.80;64.40;;;;;;5034413;28;19917;-56
2021/10/08 07:35:37;;;;;;;;;;;18.80;64.30;;;;;;5033496;28;19916;-49
2021/10/08 07:38:02;;;;;;;;;;;18.80;64.30;;;;;;5040102;28;19920;-56
2021/10/08 07:40:28;;;;;;;;;;;18.80;64.30;;;;;;5031207;28;20291;-50
2021/10/08 07:42:53;;;;;;;;;;;18.80;64.30;;;;;;5039025;28;19932;-49
2021/10/08 07:45:19;;;;;;;;;;;18.80;64.30;;;;;;5040898;28;19913;-55
2021/10/08 07:47:44;;;;;;;;;;;18.70;64.30;;;;;;5033268;28;19921;-51
2021/10/08 07:50:09;;;;;;;;;;;18.80;64.40;;;;;;5034308;28;19924;-54
2021/10/08 07:52:35;;;;;;;;;;;18.80;64.50;;;;;;5032043;28;19937;-55
2021/10/08 07:55:00;;;;;;;;;;;18.80;64.60;;;;;;5025248;28;19914;-54
2021/10/08 07:57:26;;;;;;;;;;;18.80;64.80;;;;;;5023292;28;19913;-56
2021/10/08 07:59:51;;;;;;;;;;;18.80;64.90;;;;;;5027381;28;20383;-57
2021/10/08 08:02:17;;;;;;;;;;;18.70;64.90;;;;;;5035923;28;19921;-55
2021/10/08 08:04:42;;;;;;;;;;;18.80;65.00;;;;;;5036122;28;19920;-56
2021/10/08 08:07:08;;;;;;;;;;;18.80;65.10;;;;;;5033680;28;20371;-50
2021/10/08 08:09:33;;;;;;;;;;;18.80;65.10;;;;;;5031024;28;19917;-53
2021/10/08 08:11:59;;;;;;;;;;;18.70;65.10;;;;;;5027582;28;19913;-55
2021/10/08 08:14:24;;;;;;;;;;;18.80;65.20;;;;;;5036133;28;20417;-52
2021/10/08 08:16:49;;;;;;;;;;;18.80;65.30;;;;;;5027162;28;19913;-55
2021/10/08 08:19:15;;;;;;;;;;;18.80;65.30;;;;;;5023662;28;19961;-48
2021/10/08 08:21:41;;;;;;;;;;;18.80;65.30;;;;;;5039079;28;19975;-52
2021/10/08 08:24:07;;;;;;;;;;;18.80;65.40;;;;;;5039981;28;19913;-52
2021/10/08 08:26:32;;;;;;;;;;;18.80;65.40;;;;;;5036692;28;19913;-54
2021/10/08 08:28:57;;;;;;;;;;;18.70;65.40;;;;;;5053756;28;19917;-57
2021/10/08 08:31:23;;;;;;;;;;;18.80;65.50;;;;;;5039439;28;19919;-53
2021/10/08 08:33:48;;;;;;;;;;;18.80;65.50;;;;;;5029063;28;19941;-49
2021/10/08 08:36:14;;;;;;;;;;;18.80;65.50;;;;;;5053102;28;19913;-58
2021/10/08 08:38:39;;;;;;;;;;;18.70;65.60;;;;;;5037774;28;19948;-53
2021/10/08 08:41:05;;;;;;;;;;;18.80;65.60;;;;;;5031384;28;19956;-52
2021/10/08 08:43:30;;;;;;;;;;;18.80;65.60;;;;;;5043851;28;19912;-57
2021/10/08 08:45:56;;;;;;;;;;;18.70;65.60;;;;;;5030294;28;19921;-51
2021/10/08 08:48:21;;;;;;;;;;;18.80;65.70;;;;;;5038955;28;20393;-50
2021/10/08 08:50:47;;;;;;;;;;;18.70;65.60;;;;;;4964941;28;1696319;-54
2021/10/08 08:53:13;;;;;;;;;;;18.70;65.60;;;;;;5049763;28;19913;-57
2021/10/08 08:55:38;;;;;;;;;;;18.70;65.70;;;;;;5037114;28;19940;-53
2021/10/08 08:58:04;;;;;;;;;;;18.80;65.80;;;;;;5039905;28;20287;-57
2021/10/08 09:00:29;;;;;;;;;;;18.70;65.80;;;;;;5039149;28;19988;-58
2021/10/08 09:02:57;;;;;;;;;;;18.70;65.80;;;;;;5041358;28;19916;-50
2021/10/08 09:05:24;;;;;;;;;;;18.70;65.80;;;;;;5035796;28;19920;-58
2021/10/08 09:07:50;;;;;;;;;;;18.80;65.90;;;;;;5027218;28;19921;-56
2021/10/08 09:10:17;;;;;;;;;;;18.70;65.80;;;;;;5037850;28;19912;-54
2021/10/08 09:12:43;;;;;;;;;;;18.70;65.80;;;;;;5029276;28;19920;-50
2021/10/08 09:15:09;;;;;;;;;;;18.80;66.50;;;;;;5032557;28;19913;-51
2021/10/08 09:17:34;;;;;;;;;;;18.70;65.90;;;;;;5029418;28;20188;-52
2021/10/08 09:20:00;;;;;;;;;;;18.70;65.80;;;;;;5033910;28;20285;-52
2021/10/08 09:22:26;;;;;;;;;;;18.70;65.80;;;;;;5028712;28;19917;-53
2021/10/08 09:24:52;;;;;;;;;;;18.70;65.80;;;;;;5038974;28;19913;-51
2021/10/08 09:27:23;;;;;;;;;;;18.80;66.00;;;;;;5032821;28;19979;-50
2021/10/08 09:29:52;;;;;;;;;;;18.70;66.00;;;;;;5027948;28;19917;-53
2021/10/08 09:32:19;;;;;;;;;;;18.70;65.90;;;;;;5050845;28;20400;-51
2021/10/08 09:34:44;;;;;;;;;;;18.70;65.90;;;;;;5031345;28;19913;-52
2021/10/08 09:37:12;;;;;;;;;;;18.80;65.90;;;;;;5023981;28;19924;-52
2021/10/08 09:39:38;;;;;;;;;;;18.70;65.90;;;;;;5030033;28;20339;-52
2021/10/08 09:42:13;;;;;;;;;;;18.70;66.00;;;;;;5033975;28;19975;-54
2021/10/08 09:44:47;;;;;;;;;;;18.70;66.00;;;;;;5036296;28;19913;-50
2021/10/08 09:47:13;;;;;;;;;;;18.70;66.00;;;;;;5034949;28;19919;-57
2021/10/08 09:49:39;;;;;;;;;;;18.70;66.00;;;;;;5028614;28;20022;-53
2021/10/08 09:52:20;;;;;;;;;;;18.70;66.00;;;;;;5047678;28;19967;-53
2021/10/08 09:54:46;;;;;;;;;;;18.70;66.00;;;;;;5018077;28;20563;-55
2021/10/08 09:57:12;;;;;;;;;;;18.70;66.00;;;;;;5023143;28;20357;-57
2021/10/08 09:59:38;;;;;;;;;;;18.70;66.00;;;;;;5036705;28;19927;-59
2021/10/08 10:02:03;;;;;;;;;;;18.70;66.10;;;;;;5032929;28;20290;-53
2021/10/08 10:04:43;;;;;;;;;;;18.70;66.00;;;;;;5053357;28;21253;-51
2021/10/08 10:07:09;;;;;;;;;;;18.70;66.00;;;;;;5032165;28;19940;-58
2021/10/08 10:09:35;;;;;;;;;;;18.80;66.10;;;;;;5034841;28;20304;-49
2021/10/08 10:12:00;;;;;;;;;;;18.70;66.00;;;;;;5038094;28;19917;-57
2021/10/08 10:14:26;;;;;;;;;;;18.80;66.10;;;;;;5041785;28;19919;-54
2021/10/08 10:16:51;;;;;;;;;;;18.80;66.10;;;;;;5041925;28;19913;-56
2021/10/08 10:19:17;;;;;;;;;;;18.80;66.10;;;;;;5051137;28;20091;-54
2021/10/08 10:21:42;;;;;;;;;;;18.70;66.10;;;;;;5025700;28;20643;-52
2021/10/08 10:24:08;;;;;;;;;;;18.70;66.10;;;;;;5027845;28;19920;-54
2021/10/08 10:26:33;;;;;;;;;;;18.70;66.10;;;;;;5038972;28;19919;-55
2021/10/08 10:28:59;;;;;;;;;;;18.70;66.10;;;;;;5023572;28;19917;-52
2021/10/08 10:31:24;;;;;;;;;;;18.70;66.20;;;;;;5028820;28;19921;-53
2021/10/08 10:33:50;;;;;;;;;;;18.70;66.20;;;;;;5034885;28;19913;-58
2021/10/08 10:36:25;;;;;;;;;;;18.70;66.20;;;;;;5046579;28;20318;-57
2021/10/08 10:38:51;;;;;;;;;;;18.70;66.20;;;;;;5029935;28;20250;-51
2021/10/08 10:41:16;;;;;;;;;;;18.70;66.10;;;;;;5028476;28;20549;-53
2021/10/08 10:43:46;;;;;;;;;;;18.70;66.10;;;;;;5020042;28;19913;-53
2021/10/08 10:46:18;;;;;;;;;;;18.80;66.20;;;;;;4999735;28;21239;-53
2021/10/08 10:48:50;;;;;;;;;;;18.70;66.10;;;;;;5037371;28;19923;-55
2021/10/08 10:51:20;;;;;;;;;;;18.70;66.10;;;;;;5015452;28;19937;-49
2021/10/08 10:53:51;;;;;;;;;;;18.80;66.10;;;;;;5033813;28;20329;-53
2021/10/08 10:56:35;;;;;;;;;;;18.70;66.10;;;;;;5033471;28;19924;-57
2021/10/08 10:59:24;;;;;;;;;;;18.70;66.10;;;;;;5017273;28;20336;-54
2021/10/08 11:02:15;;;;;;;;;;;18.70;66.10;;;;;;5031971;28;19923;-57
2021/10/08 11:04:41;;;;;;;;;;;18.70;66.10;;;;;;5019545;28;19995;-55
2021/10/08 11:07:10;;;;;;;;;;;18.80;66.20;;;;;;5046981;28;20336;-53
2021/10/08 11:09:36;;;;;;;;;;;18.80;66.20;;;;;;5025403;28;24746;-55
2021/10/08 11:12:20;;;;;;;;;;;18.70;66.20;;;;;;5049832;28;19913;-56
2021/10/08 11:14:45;;;;;;;;;;;18.70;66.20;;;;;;5026989;28;19967;-57
2021/10/08 11:17:30;;;;;;;;;;;18.70;66.20;;;;;;5035837;28;20480;-53
2021/10/08 11:19:55;;;;;;;;;;;18.70;66.20;;;;;;5031125;28;19913;-56
2021/10/08 11:22:39;;;;;;;;;;;18.70;66.20;;;;;;5041051;28;19925;-56
2021/10/08 11:25:05;;;;;;;;;;;18.70;66.20;;;;;;5018921;28;19921;-52
2021/10/08 11:27:31;;;;;;;;;;;18.70;66.10;;;;;;5037128;28;19917;-52
2021/10/08 11:30:01;;;;;;;;;;;18.70;66.20;;;;;;5032844;28;19916;-57
2021/10/08 11:32:26;;;;;;;;;;;18.70;66.20;;;;;;5046196;28;19915;-52
2021/10/08 11:34:52;;;;;;;;;;;18.70;66.20;;;;;;5029257;28;20463;-53
2021/10/08 11:37:18;;;;;;;;;;;18.80;66.20;;;;;;5047541;28;19913;-54
2021/10/08 11:39:44;;;;;;;;;;;18.70;66.20;;;;;;5032044;28;19919;-58
2021/10/08 11:42:12;;;;;;;;;;;18.70;66.20;;;;;;5035805;28;20000;-59
2021/10/08 11:44:53;;;;;;;;;;;18.70;66.20;;;;;;5020412;28;19918;-58
2021/10/08 11:52:29;;;;;;;;;;;18.70;66.30;;;;;;5042408;28;19948;-53
2021/10/08 11:55:32;;;;;;;;;;;18.70;66.20;;;;;;5015048;28;19913;-55
2021/10/08 11:58:11;;;;;;;;;;;18.80;66.30;;;;;;4981873;28;19993;-55
2021/10/08 12:00:37;;;;;;;;;;;18.80;66.20;;;;;;5007313;28;20321;-51
2021/10/08 12:03:04;;;;;;;;;;;18.80;66.20;;;;;;5033326;28;19952;-53
2021/10/08 12:05:48;;;;;;;;;;;18.70;66.20;;;;;;5042043;28;20366;-50
2021/10/08 12:08:15;;;;;;;;;;;18.80;66.20;;;;;;5043906;28;19917;-59
2021/10/08 12:10:50;;;;;;;;;;;18.80;66.20;;;;;;5032676;28;20385;-56
2021/10/08 12:13:15;;;;;;;;;;;18.70;66.20;;;;;;5041692;28;19951;-51
2021/10/08 12:15:41;;;;;;;;;;;18.80;66.20;;;;;;5028229;28;20554;-52
2021/10/08 12:18:06;;;;;;;;;;;18.80;66.20;;;;;;5043942;28;19985;-57
2021/10/08 12:20:33;;;;;;;;;;;18.80;66.30;;;;;;5028456;28;19923;-54
2021/10/08 12:23:13;;;;;;;;;;;18.80;66.20;;;;;;5041451;28;19940;-53
2021/10/08 12:25:39;;;;;;;;;;;18.80;66.30;;;;;;5034769;28;20524;-56
2021/10/08 12:28:05;;;;;;;;;;;18.80;66.20;;;;;;5043808;28;19960;-55
2021/10/08 12:30:30;;;;;;;;;;;18.80;66.30;;;;;;5030518;28;19935;-50
2021/10/08 12:33:04;;;;;;;;;;;18.80;66.30;;;;;;5028250;28;19920;-58
2021/10/08 12:35:30;;;;;;;;;;;18.80;66.30;;;;;;5031364;28;19917;-49
2021/10/08 12:38:00;;;;;;;;;;;18.80;66.30;;;;;;5046264;28;19937;-51
2021/10/08 12:40:26;;;;;;;;;;;18.80;66.30;;;;;;5021137;28;19912;-57
2021/10/08 12:43:02;;;;;;;;;;;18.80;66.30;;;;;;5049346;28;19928;-54
2021/10/08 12:45:36;;;;;;;;;;;18.80;66.30;;;;;;5029702;28;19913;-50
2021/10/08 12:48:04;;;;;;;;;;;18.80;66.30;;;;;;5035604;28;19994;-52
2021/10/08 12:50:29;;;;;;;;;;;18.80;66.30;;;;;;5024532;28;19987;-54
2021/10/08 12:52:55;;;;;;;;;;;18.80;66.30;;;;;;5048035;28;19948;-52
2021/10/08 12:55:29;;;;;;;;;;;18.80;66.30;;;;;;5031232;28;20223;-57
2021/10/08 12:58:00;;;;;;;;;;;18.80;66.30;;;;;;5050432;28;20341;-49
2021/10/08 13:00:56;;;;;;;;;;;18.80;66.30;;;;;;5015940;28;19952;-59
2021/10/08 13:03:31;;;;;;;;;;;18.80;66.30;;;;;;5010261;28;19921;-59
2021/10/08 13:05:57;;;;;;;;;;;18.80;66.30;;;;;;5034623;28;19913;-56
2021/10/08 13:08:22;;;;;;;;;;;18.80;66.30;;;;;;5037835;28;19931;-52
2021/10/08 13:11:09;;;;;;;;;;;18.80;66.10;;;;;;5027704;28;19913;-57
2021/10/08 13:13:38;;;;;;;;;;;18.80;66.20;;;;;;5026956;28;19938;-52
2021/10/08 13:16:07;;;;;;;;;;;18.80;66.30;;;;;;5041104;28;19912;-52
2021/10/08 13:18:40;;;;;;;;;;;18.80;66.30;;;;;;5044596;28;19995;-53
2021/10/08 13:21:05;;;;;;;;;;;18.80;66.30;;;;;;5035933;28;20154;-56
2021/10/08 13:23:32;;;;;;;;;;;18.80;66.30;;;;;;5041748;28;20060;-55
2021/10/08 13:25:57;;;;;;;;;;;18.80;66.30;;;;;;5024326;28;19913;-49
2021/10/08 13:28:23;;;;;;;;;;;18.80;66.30;;;;;;5041613;28;19936;-56
2021/10/08 13:30:52;;;;;;;;;;;18.80;66.20;;;;;;5020249;28;19952;-54
2021/10/08 13:33:20;;;;;;;;;;;18.80;66.30;;;;;;5030428;28;20477;-51
2021/10/08 13:35:46;;;;;;;;;;;18.80;66.20;;;;;;5033330;28;19920;-55
2021/10/08 13:38:11;;;;;;;;;;;18.80;66.20;;;;;;5030539;28;20450;-50
2021/10/08 13:40:36;;;;;;;;;;;18.80;66.20;;;;;;5037100;28;19946;-49
2021/10/08 13:43:02;;;;;;;;;;;18.80;66.20;;;;;;5043271;28;20530;-49
2021/10/08 13:45:27;;;;;;;;;;;18.80;66.20;;;;;;5028880;28;19912;-53
2021/10/08 13:47:53;;;;;;;;;;;18.80;66.20;;;;;;5030245;28;19913;-51
2021/10/08 13:50:18;;;;;;;;;;;18.80;66.20;;;;;;5020953;28;19925;-53
2021/10/08 13:52:44;;;;;;;;;;;18.80;66.30;;;;;;5031876;28;19921;-52
2021/10/08 13:55:09;;;;;;;;;;;18.80;66.20;;;;;;5026971;28;19920;-58
2021/10/08 13:57:35;;;;;;;;;;;18.80;66.20;;;;;;5043554;28;19921;-56
2021/10/08 14:00:00;;;;;;;;;;;18.80;66.20;;;;;;5030139;28;20375;-55
2021/10/08 14:02:31;;;;;;;;;;;18.80;66.10;;;;;;5041578;28;19940;-59
2021/10/08 14:05:03;;;;;;;;;;;18.80;66.20;;;;;;5021895;28;19916;-55
2021/10/08 14:07:55;;;;;;;;;;;18.80;66.10;;;;;;5045193;28;20393;-52
2021/10/08 14:10:21;;;;;;;;;;;18.80;66.10;;;;;;5015820;28;20286;-59
2021/10/08 14:12:47;;;;;;;;;;;18.80;66.10;;;;;;5026607;28;19920;-55
2021/10/08 14:15:13;;;;;;;;;;;18.80;66.20;;;;;;5026009;28;19916;-51
2021/10/08 14:17:38;;;;;;;;;;;18.80;66.20;;;;;;5034115;28;19920;-52
2021/10/08 14:20:05;;;;;;;;;;;18.80;66.20;;;;;;5033556;28;20103;-49